Baxter, Iowa
Current Conditions -  °F | °C
As of 2:35 PM on Saturday 20 Dec 2014 (Local Time) from KTNU Reporting Station
Haze Haze  
Wind Chill: 28°   Ceiling: 400
Heat Index: 34°   Visibility: 1.5mi
Dew Point: 34°   Wind: 7mph
Humidity: 100%   Direction: 130°SE
Pressure: 30.13"   Gusts: NA
Location:  41.83°N, 93.15°W
Report Text: KTNU 202035Z AUTO 13006KT 1 1/2SM BR OVC004 01/01 A3013 RMK AO2
Loading
Personal Weather Stations






























Interactive Weather Map New forecast layout! Learn more

10-Day Weather Forecast

Advertisements
Track Severe Weather on mobile